createdAt,value
2023-05-28T00:02:11.184Z,3.13
2023-05-28T00:05:13.283Z,3.30
2023-05-28T00:08:15.488Z,3.67
2023-05-28T00:11:17.810Z,3.37
2023-05-28T00:14:20.255Z,3.25
2023-05-28T00:17:22.631Z,3.55
2023-05-28T00:20:26.553Z,3.25
2023-05-28T00:23:28.717Z,3.28
2023-05-28T00:26:30.972Z,3.73
2023-05-28T00:29:34.419Z,3.50
2023-05-28T00:32:36.753Z,3.80
2023-05-28T00:35:38.856Z,3.28
2023-05-28T00:38:40.998Z,2.80
2023-05-28T00:41:43.222Z,2.67
2023-05-28T00:44:46.152Z,3.17
2023-05-28T00:47:48.414Z,3.03
2023-05-28T00:50:50.729Z,2.97
2023-05-28T00:53:52.996Z,3.53
2023-05-28T00:56:55.335Z,3.07
2023-05-28T00:59:57.962Z,2.80
2023-05-28T01:03:00.272Z,3.67
2023-05-28T01:06:02.548Z,3.38
2023-05-28T01:09:08.002Z,3.33
2023-05-28T01:12:10.834Z,3.50
2023-05-28T01:15:13.189Z,3.70
2023-05-28T01:18:15.545Z,3.58
2023-05-28T01:21:18.037Z,3.88
2023-05-28T01:24:20.284Z,3.73
2023-05-28T01:27:22.614Z,3.67
2023-05-28T01:30:24.693Z,3.85
2023-05-28T01:33:26.795Z,2.95
2023-05-28T01:36:31.913Z,3.08
2023-05-28T01:39:38.258Z,3.57
2023-05-28T01:42:41.049Z,4.22
2023-05-28T01:45:43.772Z,3.53
2023-05-28T01:48:47.186Z,4.05
2023-05-28T01:51:50.825Z,3.63
2023-05-28T01:54:53.127Z,3.45
2023-05-28T01:57:55.264Z,2.80
2023-05-28T02:01:11.912Z,3.20
2023-05-28T02:04:14.151Z,3.00
2023-05-28T02:07:17.211Z,3.58
2023-05-28T02:10:19.258Z,3.15
2023-05-28T02:13:21.883Z,4.30
2023-05-28T02:16:25.096Z,3.57
2023-05-28T02:19:30.092Z,3.65
2023-05-28T02:22:32.163Z,3.33
2023-05-28T02:25:34.299Z,3.17
2023-05-28T02:28:36.328Z,4.00
2023-05-28T02:31:38.524Z,3.50
2023-05-28T02:34:40.694Z,4.10
2023-05-28T02:37:42.757Z,4.05
2023-05-28T02:40:44.899Z,4.07
2023-05-28T02:43:47.977Z,3.87
2023-05-28T02:46:50.912Z,4.25
2023-05-28T02:49:53.085Z,3.85
2023-05-28T02:52:55.873Z,4.10
2023-05-28T02:55:58.049Z,3.70
2023-05-28T02:59:00.089Z,3.13
2023-05-28T03:02:02.164Z,3.70
2023-05-28T03:05:04.993Z,3.40
2023-05-28T03:08:07.183Z,3.43
2023-05-28T03:11:09.249Z,3.55
2023-05-28T03:14:11.348Z,4.45
2023-05-28T03:17:13.620Z,3.20
2023-05-28T03:20:16.315Z,3.70
2023-05-28T03:23:18.633Z,3.70
2023-05-28T03:26:37.296Z,3.38
2023-05-28T03:29:40.090Z,3.95
2023-05-28T03:32:42.193Z,3.10
2023-05-28T03:35:44.488Z,3.47
2023-05-28T03:38:46.653Z,3.33
2023-05-28T03:41:50.234Z,4.80
2023-05-28T03:44:52.524Z,3.60
2023-05-28T03:47:54.641Z,3.08
2023-05-28T03:50:57.073Z,3.75
2023-05-28T03:53:59.970Z,4.00
2023-05-28T03:57:03.598Z,3.67
2023-05-28T04:00:08.254Z,3.65
2023-05-28T04:03:18.972Z,3.97
2023-05-28T04:06:22.374Z,3.40
2023-05-28T04:09:24.444Z,4.18
2023-05-28T04:12:26.546Z,4.03
2023-05-28T04:15:28.772Z,4.03
2023-05-28T04:18:32.016Z,3.90
2023-05-28T04:21:34.196Z,3.90
2023-05-28T04:24:36.718Z,3.67
2023-05-28T04:27:39.016Z,3.87
2023-05-28T04:30:41.142Z,4.47
2023-05-28T04:33:47.530Z,3.90
2023-05-28T04:36:49.729Z,4.53
2023-05-28T04:39:53.189Z,4.37
2023-05-28T04:42:56.432Z,3.10
2023-05-28T04:46:04.569Z,3.72
2023-05-28T04:49:07.264Z,3.53
2023-05-28T04:52:12.129Z,4.15
2023-05-28T04:55:14.287Z,4.03
2023-05-28T04:58:16.914Z,4.22
2023-05-28T05:01:19.027Z,3.38
2023-05-28T05:04:21.935Z,3.72
2023-05-28T05:07:24.194Z,3.90
2023-05-28T05:10:26.481Z,3.05
2023-05-28T05:13:28.581Z,3.83
2023-05-28T05:16:30.994Z,4.18
2023-05-28T05:19:33.372Z,3.50
2023-05-28T05:22:35.575Z,3.20
2023-05-28T05:25:38.438Z,3.13
2023-05-28T05:28:40.890Z,4.10
2023-05-28T05:31:43.469Z,3.63
2023-05-28T05:34:47.563Z,3.40
2023-05-28T05:38:01.718Z,3.63
2023-05-28T05:41:23.799Z,3.20
2023-05-28T05:44:31.866Z,3.42
2023-05-28T05:47:34.776Z,3.20
2023-05-28T05:51:07.330Z,3.00
2023-05-28T05:54:10.003Z,3.60
2023-05-28T05:57:12.209Z,3.38
2023-05-28T06:00:16.184Z,3.33
2023-05-28T06:03:24.906Z,3.40
2023-05-28T06:06:45.923Z,3.30
2023-05-28T06:10:21.416Z,3.30
2023-05-28T06:13:23.724Z,3.53
2023-05-28T06:16:26.560Z,2.97
2023-05-28T06:19:28.723Z,3.80
2023-05-28T06:22:31.844Z,3.30
2023-05-28T06:25:36.394Z,2.70
2023-05-28T06:28:38.610Z,3.03
2023-05-28T06:31:41.496Z,3.45
2023-05-28T06:34:44.381Z,3.07
2023-05-28T06:37:46.800Z,3.10
2023-05-28T06:40:49.117Z,3.80
2023-05-28T06:43:51.719Z,3.08
2023-05-28T06:47:12.301Z,2.90
2023-05-28T06:50:14.549Z,3.13
2023-05-28T06:53:16.636Z,3.70
2023-05-28T06:56:18.755Z,3.65
2023-05-28T06:59:21.026Z,3.08
2023-05-28T07:02:39.663Z,3.30
2023-05-28T07:06:05.264Z,3.37
2023-05-28T07:09:07.731Z,2.80
2023-05-28T07:12:09.932Z,3.45
2023-05-28T07:15:17.065Z,3.22
2023-05-28T07:18:20.227Z,3.47
2023-05-28T07:21:22.819Z,3.37
2023-05-28T07:24:26.289Z,2.87
2023-05-28T07:27:28.372Z,3.75
2023-05-28T07:30:31.179Z,3.40
2023-05-28T07:33:36.775Z,2.92
2023-05-28T07:36:40.110Z,3.60
2023-05-28T07:39:42.809Z,2.70
2023-05-28T07:42:44.888Z,3.60
2023-05-28T07:45:47.261Z,2.92
2023-05-28T07:48:51.177Z,3.42
2023-05-28T07:51:58.414Z,2.90
2023-05-28T07:55:04.495Z,3.73
2023-05-28T07:58:07.194Z,3.63
2023-05-28T08:01:10.481Z,3.33
2023-05-28T08:04:14.813Z,4.03
2023-05-28T08:07:17.678Z,3.83
2023-05-28T08:10:19.890Z,4.10
2023-05-28T08:13:22.489Z,4.13
2023-05-28T08:16:24.904Z,4.03
2023-05-28T08:23:11.416Z,3.70
2023-05-28T08:26:13.639Z,4.60
2023-05-28T08:29:15.781Z,4.20
2023-05-28T08:32:24.476Z,4.10
2023-05-28T08:35:27.406Z,4.38
2023-05-28T08:38:31.074Z,3.63
2023-05-28T08:41:33.214Z,4.20
2023-05-28T08:44:35.723Z,4.25
2023-05-28T08:47:38.417Z,5.05
2023-05-28T08:50:50.002Z,4.63
2023-05-28T08:54:00.148Z,5.33
2023-05-28T08:57:05.025Z,4.60
2023-05-28T09:00:12.915Z,5.00
2023-05-28T09:03:50.248Z,5.57
2023-05-28T09:07:00.334Z,4.00
2023-05-28T09:10:14.403Z,4.60
2023-05-28T09:13:21.981Z,4.87
2023-05-28T09:16:25.610Z,4.32
2023-05-28T09:19:35.274Z,4.68
2023-05-28T09:22:37.762Z,5.28
2023-05-28T09:25:49.015Z,4.70
2023-05-28T09:28:59.476Z,5.10
2023-05-28T09:32:02.222Z,5.18
2023-05-28T09:35:07.976Z,5.68
2023-05-28T09:38:13.050Z,6.10
2023-05-28T09:41:21.912Z,5.20
2023-05-28T09:44:24.036Z,5.80
2023-05-28T09:47:26.319Z,6.07
2023-05-28T09:50:28.661Z,6.25
2023-05-28T09:53:34.830Z,5.70
2023-05-28T09:56:39.240Z,6.07
2023-05-28T09:59:41.563Z,5.33
2023-05-28T10:03:11.409Z,5.20
2023-05-28T10:06:25.081Z,5.32
2023-05-28T10:09:27.718Z,4.75
2023-05-28T10:12:30.748Z,5.70
2023-05-28T10:15:32.885Z,6.47
2023-05-28T10:18:37.780Z,6.10
2023-05-28T10:21:41.330Z,6.30
2023-05-28T10:24:44.210Z,6.47
2023-05-28T10:27:47.001Z,6.10
2023-05-28T10:31:00.629Z,5.90
2023-05-28T10:34:02.792Z,7.00
2023-05-28T10:37:06.876Z,7.15
2023-05-28T10:40:22.731Z,7.43
2023-05-28T10:43:40.083Z,6.33
2023-05-28T10:46:42.454Z,7.40
2023-05-28T10:50:15.824Z,6.70
2023-05-28T10:53:18.857Z,6.95
2023-05-28T10:56:21.077Z,7.38
2023-05-28T10:59:37.104Z,6.87
2023-05-28T11:02:39.738Z,6.70
2023-05-28T11:05:41.934Z,6.38
2023-05-28T11:08:47.659Z,6.90
2023-05-28T11:11:49.780Z,6.90
2023-05-28T11:14:52.011Z,7.00
2023-05-28T11:17:54.101Z,6.43
2023-05-28T11:21:03.140Z,6.20
2023-05-28T11:24:06.468Z,6.57
2023-05-28T11:27:09.190Z,6.93
2023-05-28T11:30:12.737Z,7.00
2023-05-28T11:33:16.356Z,7.50
2023-05-28T11:36:21.546Z,6.32
2023-05-28T11:39:23.658Z,6.72
2023-05-28T11:42:26.625Z,6.13
2023-05-28T11:45:28.749Z,6.70
2023-05-28T11:48:30.825Z,7.07
2023-05-28T11:51:32.964Z,6.57
2023-05-28T11:54:35.091Z,6.47
2023-05-28T11:57:40.855Z,5.70
2023-05-28T12:00:42.949Z,6.20
2023-05-28T12:03:45.418Z,6.87
2023-05-28T12:06:54.529Z,6.97
2023-05-28T12:10:09.942Z,6.57
2023-05-28T12:13:13.384Z,6.72
2023-05-28T12:16:16.051Z,6.20
2023-05-28T12:19:18.309Z,6.47
2023-05-28T12:22:20.504Z,6.75
2023-05-28T12:25:22.688Z,6.90
2023-05-28T12:28:24.804Z,6.70
2023-05-28T12:31:30.199Z,6.07
2023-05-28T12:34:32.266Z,6.67
2023-05-28T12:37:34.314Z,6.38
2023-05-28T12:40:36.383Z,6.22
2023-05-28T12:43:38.448Z,6.40
2023-05-28T12:46:40.880Z,5.67
2023-05-28T12:49:43.065Z,5.43
2023-05-28T12:52:45.139Z,6.70
2023-05-28T12:55:47.415Z,6.40
2023-05-28T12:58:51.946Z,5.75
2023-05-28T13:01:55.445Z,6.17
2023-05-28T13:04:58.209Z,5.90
2023-05-28T13:08:02.382Z,5.10
2023-05-28T13:11:04.791Z,6.10
2023-05-28T13:14:07.141Z,5.57
2023-05-28T13:17:09.220Z,6.03
2023-05-28T13:20:12.202Z,6.43
2023-05-28T13:23:14.510Z,6.85
2023-05-28T13:26:16.595Z,5.72
2023-05-28T13:29:19.041Z,5.90
2023-05-28T13:32:21.534Z,5.87
2023-05-28T13:35:23.650Z,5.70
2023-05-28T13:38:25.826Z,5.85
2023-05-28T13:41:27.971Z,5.22
2023-05-28T13:44:30.686Z,6.38
2023-05-28T13:47:32.780Z,6.60
2023-05-28T13:50:34.835Z,6.27
2023-05-28T13:53:37.255Z,6.00
2023-05-28T13:56:39.344Z,7.25
2023-05-28T13:59:41.586Z,5.85
2023-05-28T14:02:43.759Z,6.00
2023-05-28T14:05:46.097Z,5.90
2023-05-28T14:08:48.248Z,6.07
2023-05-28T14:12:16.780Z,6.93
2023-05-28T14:15:12.550Z,6.00
2023-05-28T14:18:14.659Z,6.73
2023-05-28T14:21:17.353Z,6.50
2023-05-28T14:24:19.537Z,6.90
2023-05-28T14:27:21.598Z,6.45
2023-05-28T14:30:23.872Z,6.60
2023-05-28T14:33:29.724Z,6.63
2023-05-28T14:36:33.137Z,5.80
2023-05-28T14:39:35.249Z,6.60
2023-05-28T14:42:37.398Z,5.75
2023-05-28T14:45:39.439Z,7.18
2023-05-28T14:48:41.608Z,6.03
2023-05-28T14:51:43.686Z,7.03
2023-05-28T14:54:45.895Z,6.43
2023-05-28T14:57:48.074Z,6.57
2023-05-28T15:00:50.230Z,6.20
2023-05-28T15:03:52.441Z,6.43
2023-05-28T15:06:54.592Z,5.70
2023-05-28T15:09:56.649Z,5.90
2023-05-28T15:12:58.766Z,5.88
2023-05-28T15:16:00.973Z,6.75
2023-05-28T15:19:03.167Z,6.43
2023-05-28T15:22:05.303Z,6.20
2023-05-28T15:25:07.696Z,6.28
2023-05-28T15:28:09.984Z,6.40
2023-05-28T15:31:12.453Z,5.88
2023-05-28T15:34:15.040Z,6.70
2023-05-28T15:37:17.231Z,5.27
2023-05-28T15:40:19.500Z,6.68
2023-05-28T15:43:21.595Z,5.85
2023-05-28T15:46:23.768Z,5.60
2023-05-28T15:49:26.067Z,5.90
2023-05-28T15:52:29.549Z,5.30
2023-05-28T15:55:31.744Z,6.07
2023-05-28T15:58:33.868Z,5.65
2023-05-28T16:01:37.850Z,6.10
2023-05-28T16:04:40.021Z,5.80
2023-05-28T16:07:42.175Z,5.50
2023-05-28T16:10:44.474Z,6.07
2023-05-28T16:13:47.064Z,5.10
2023-05-28T16:16:52.782Z,5.95
2023-05-28T16:19:54.957Z,5.77
2023-05-28T16:22:57.866Z,5.67
2023-05-28T16:26:00.652Z,5.57
2023-05-28T16:29:02.776Z,5.53
2023-05-28T16:32:04.980Z,6.43
2023-05-28T16:35:07.304Z,5.97
2023-05-28T16:38:09.540Z,6.60
2023-05-28T16:41:11.668Z,6.32
2023-05-28T16:44:13.769Z,5.43
2023-05-28T16:47:15.839Z,6.32
2023-05-28T16:50:17.972Z,5.90
2023-05-28T16:53:19.992Z,5.77
2023-05-28T16:56:22.688Z,6.72
2023-05-28T16:59:27.496Z,5.70
2023-05-28T17:02:29.629Z,5.80
2023-05-28T17:05:31.783Z,4.87
2023-05-28T17:08:34.123Z,5.97
2023-05-28T17:11:36.273Z,6.28
2023-05-28T17:14:38.365Z,5.43
2023-05-28T17:17:40.514Z,5.30
2023-05-28T17:20:42.767Z,5.20
2023-05-28T17:23:44.956Z,5.37
2023-05-28T17:26:47.043Z,5.88
2023-05-28T17:29:49.094Z,4.95
2023-05-28T17:32:51.454Z,5.20
2023-05-28T17:35:53.558Z,4.73
2023-05-28T17:38:56.251Z,5.40
2023-05-28T17:41:58.377Z,5.18
2023-05-28T17:45:00.472Z,6.30
2023-05-28T17:48:03.744Z,4.80
2023-05-28T17:51:06.461Z,5.87
2023-05-28T17:54:08.550Z,5.50
2023-05-28T17:57:10.759Z,4.43
2023-05-28T18:00:13.443Z,5.35
2023-05-28T18:03:15.878Z,6.03
2023-05-28T18:06:17.965Z,5.27
2023-05-28T18:09:23.240Z,5.27
2023-05-28T18:12:25.433Z,5.68
2023-05-28T18:15:28.670Z,5.72
2023-05-28T18:18:32.134Z,5.80
2023-05-28T18:21:34.198Z,5.97
2023-05-28T18:24:36.220Z,5.40
2023-05-28T18:27:39.563Z,6.38
2023-05-28T18:30:51.600Z,5.57
2023-05-28T18:33:53.712Z,5.43
2023-05-28T18:36:55.770Z,5.27
2023-05-28T18:39:59.195Z,5.53
2023-05-28T18:43:01.473Z,5.47
2023-05-28T18:46:03.743Z,6.00
2023-05-28T18:49:06.010Z,5.47
2023-05-28T18:52:10.358Z,5.80
2023-05-28T18:55:12.505Z,5.30
2023-05-28T18:58:15.645Z,6.10
2023-05-28T19:01:17.754Z,6.25
2023-05-28T19:04:19.849Z,5.88
2023-05-28T19:07:26.089Z,5.63
2023-05-28T19:10:28.222Z,5.90
2023-05-28T19:13:30.489Z,5.70
2023-05-28T19:16:32.682Z,5.43
2023-05-28T19:19:34.821Z,5.75
2023-05-28T19:22:38.901Z,6.43
2023-05-28T19:25:41.217Z,6.73
2023-05-28T19:28:43.368Z,7.03
2023-05-28T19:31:45.592Z,5.88
2023-05-28T19:34:47.653Z,6.72
2023-05-28T19:37:51.637Z,7.00
2023-05-28T19:40:53.989Z,6.37
2023-05-28T19:43:56.259Z,6.15
2023-05-28T19:46:58.328Z,6.45
2023-05-28T19:50:00.778Z,6.35
2023-05-28T19:53:02.996Z,6.73
2023-05-28T19:56:05.790Z,6.53
2023-05-28T19:59:07.847Z,6.20
2023-05-28T20:02:10.092Z,6.75
2023-05-28T20:05:12.388Z,7.22
2023-05-28T20:08:14.524Z,6.67
2023-05-28T20:11:17.033Z,7.00
2023-05-28T20:14:19.145Z,7.10
2023-05-28T20:17:21.963Z,7.43
2023-05-28T20:20:24.421Z,6.50
2023-05-28T20:23:26.490Z,6.97
2023-05-28T20:26:28.670Z,7.73
2023-05-28T20:29:36.543Z,7.88
2023-05-28T20:32:40.086Z,7.45
2023-05-28T20:35:42.524Z,7.97
2023-05-28T20:38:46.698Z,7.60
2023-05-28T20:41:48.922Z,7.97
2023-05-28T20:44:50.994Z,7.32
2023-05-28T20:47:53.137Z,8.27
2023-05-28T20:50:55.298Z,7.43
2023-05-28T20:54:02.960Z,8.73
2023-05-28T20:57:07.013Z,7.07
2023-05-28T21:00:11.334Z,7.70
2023-05-28T21:03:13.482Z,7.75
2023-05-28T21:06:15.638Z,7.85
2023-05-28T21:09:17.719Z,8.47
2023-05-28T21:12:19.764Z,7.90
2023-05-28T21:15:21.847Z,8.15
2023-05-28T21:18:23.974Z,7.93
2023-05-28T21:21:26.231Z,7.50
2023-05-28T21:24:28.241Z,8.37
2023-05-28T21:27:30.357Z,7.83
2023-05-28T21:30:32.477Z,8.27
2023-05-28T21:33:35.652Z,8.73
2023-05-28T21:36:37.824Z,9.32
2023-05-28T21:39:39.962Z,9.23
2023-05-28T21:42:42.157Z,8.77
2023-05-28T21:45:46.299Z,8.95
2023-05-28T21:48:48.498Z,9.20
2023-05-28T21:51:51.574Z,8.88
2023-05-28T21:54:54.913Z,8.80
2023-05-28T21:57:57.141Z,8.80
2023-05-28T22:00:59.207Z,8.05
2023-05-28T22:04:01.292Z,7.65
2023-05-28T22:07:03.460Z,8.40
2023-05-28T22:10:06.263Z,8.17
2023-05-28T22:13:08.329Z,8.17
2023-05-28T22:16:10.432Z,8.40
2023-05-28T22:19:13.687Z,8.15
2023-05-28T22:22:16.227Z,8.27
2023-05-28T22:25:18.383Z,8.83
2023-05-28T22:28:20.554Z,8.00
2023-05-28T22:31:22.642Z,8.07
2023-05-28T22:34:24.885Z,8.00
2023-05-28T22:37:27.361Z,8.68
2023-05-28T22:40:31.159Z,8.50
2023-05-28T22:43:33.214Z,8.63
2023-05-28T22:46:35.422Z,9.38
2023-05-28T22:49:37.627Z,9.93
2023-05-28T22:52:42.826Z,9.90
2023-05-28T22:55:45.237Z,9.50
2023-05-28T22:58:47.308Z,9.10
2023-05-28T23:01:49.763Z,9.82
2023-05-28T23:04:52.446Z,8.75
2023-05-28T23:07:54.495Z,9.13
2023-05-28T23:10:56.975Z,9.53
2023-05-28T23:13:59.300Z,9.63
2023-05-28T23:17:01.439Z,9.95
2023-05-28T23:20:07.007Z,10.23
2023-05-28T23:23:10.279Z,10.10
2023-05-28T23:26:13.176Z,9.63
2023-05-28T23:29:16.692Z,9.57
2023-05-28T23:32:19.058Z,8.40
2023-05-28T23:35:21.634Z,8.52
2023-05-28T23:38:24.080Z,8.25
2023-05-28T23:41:26.339Z,7.87
2023-05-28T23:44:28.407Z,8.93
2023-05-28T23:47:30.862Z,7.38
2023-05-28T23:50:33.032Z,8.45
2023-05-28T23:53:35.047Z,6.75
2023-05-28T23:56:37.968Z,7.70
2023-05-28T23:59:40.074Z,6.83
